^^
Meteo Knjazevac Station Historical Data
Daily Summary for September 3, 2021 Units:  Both    English   Metric
Daily Weekly Monthly Yearly Custom
  High: Low: Average:
Temperature: 69.6 °F /  20.9 °C 54.7 °F /  12.6 °C 61.4 °F /  16.3 °C
Dew Point: 52.5 °F /  11.4 °C 44.8 °F /  7.1 °C 48.9 °F /  9.4 °C
Humidity: 80% 50% 64%
Wind Speed: 12mph /  19.3km/h - 4.2mph /  6.8km/h
Wind Gust: 19mph /  30.6km/h - -
Wind- - WSW
Pressure: 30.22 in /  1023.2 hPa 29.96 in /  1014.4 hPa -
Precipitation: 0.00 in /  0 mm    
Historical Graphs
 
 
Tabular Data for September 3, 2021
Time Temperature Dew Point Pressure Wind Wind Speed Wind Gust Humidity Rainfall Rate (Hourly) solar Conditions
00:00 65.7 °F /  18.7 °C 46.5 °F /  8.1 °C 29.96in /  1014.4hPa West 6mph /  9.7km/h 8mph /  12.9km/h 50% 0.00in /  0mm 0 W/m2
00:10 65.3 °F /  18.5 °C 47.2 °F /  8.4 °C 29.96in /  1014.4hPa West 6mph /  9.7km/h 11mph /  17.7km/h 52% 0.00in /  0mm 0 W/m2
00:20 65.1 °F /  18.4 °C 47.1 °F /  8.4 °C 29.97in /  1014.8hPa WSW 5mph /  8km/h 8mph /  12.9km/h 52% 0.00in /  0mm 0 W/m2
00:30 64.6 °F /  18.1 °C 47.1 °F /  8.4 °C 29.97in /  1014.8hPa WSW 5mph /  8km/h 9mph /  14.5km/h 53% 0.00in /  0mm 0 W/m2
00:40 64.4 °F /  18 °C 46.9 °F /  8.3 °C 29.97in /  1014.8hPa WSW 6mph /  9.7km/h 9mph /  14.5km/h 53% 0.00in /  0mm 0 W/m2
00:50 64 °F /  17.8 °C 46.6 °F /  8.1 °C 29.97in /  1014.8hPa WSW 5mph /  8km/h 8mph /  12.9km/h 53% 0.00in /  0mm 0 W/m2
01:00 63.9 °F /  17.7 °C 46.5 °F /  8.1 °C 29.97in /  1014.8hPa SW 6mph /  9.7km/h 10mph /  16.1km/h 53% 0.00in /  0mm 0 W/m2
01:10 63.7 °F /  17.6 °C 46.7 °F /  8.2 °C 29.97in /  1014.8hPa WSW 7mph /  11.3km/h 12mph /  19.3km/h 54% 0.00in /  0mm 0 W/m2
01:20 63.4 °F /  17.4 °C 46.4 °F /  8 °C 29.98in /  1015.1hPa WSW 7mph /  11.3km/h 12mph /  19.3km/h 54% 0.00in /  0mm 0 W/m2
01:30 63.5 °F /  17.5 °C 46.6 °F /  8.1 °C 29.98in /  1015.1hPa WSW 7mph /  11.3km/h 12mph /  19.3km/h 54% 0.00in /  0mm 0 W/m2
01:40 63.7 °F /  17.6 °C 46.2 °F /  7.9 °C 29.98in /  1015.1hPa SW 9mph /  14.5km/h 14mph /  22.5km/h 53% 0.00in /  0mm 0 W/m2
01:50 64.1 °F /  17.8 °C 46.6 °F /  8.1 °C 29.98in /  1015.1hPa SW 8mph /  12.9km/h 13mph /  20.9km/h 53% 0.00in /  0mm 0 W/m2
02:00 64 °F /  17.8 °C 47.5 °F /  8.6 °C 29.99in /  1015.5hPa SW 8mph /  12.9km/h 13mph /  20.9km/h 55% 0.00in /  0mm 0 W/m2
02:10 63.5 °F /  17.5 °C 49.4 °F /  9.7 °C 29.99in /  1015.5hPa SW 8mph /  12.9km/h 14mph /  22.5km/h 60% 0.00in /  0mm 0 W/m2
02:20 62.8 °F /  17.1 °C 50.8 °F /  10.4 °C 29.99in /  1015.5hPa SW 8mph /  12.9km/h 14mph /  22.5km/h 65% 0.00in /  0mm 0 W/m2
02:30 62.2 °F /  16.8 °C 51.5 °F /  10.8 °C 30.00in /  1015.8hPa SW 7mph /  11.3km/h 13mph /  20.9km/h 68% 0.00in /  0mm 0 W/m2
02:40 61.6 °F /  16.4 °C 51.7 °F /  10.9 °C 30.00in /  1015.8hPa SW 6mph /  9.7km/h 12mph /  19.3km/h 70% 0.00in /  0mm 0 W/m2
02:50 61.2 °F /  16.2 °C 52.1 °F /  11.2 °C 30.01in /  1016.1hPa SW 5mph /  8km/h 12mph /  19.3km/h 72% 0.00in /  0mm 0 W/m2
03:00 60.7 °F /  15.9 °C 52.3 °F /  11.3 °C 30.01in /  1016.1hPa SW 6mph /  9.7km/h 12mph /  19.3km/h 74% 0.00in /  0mm 0 W/m2
03:10 60.4 °F /  15.8 °C 52.5 °F /  11.4 °C 30.01in /  1016.1hPa SW 5mph /  8km/h 12mph /  19.3km/h 75% 0.00in /  0mm 0 W/m2
03:20 60.1 °F /  15.6 °C 52.1 °F /  11.2 °C 30.01in /  1016.1hPa WSW 3mph /  4.8km/h 8mph /  12.9km/h 75% 0.00in /  0mm 0 W/m2
03:30 59.5 °F /  15.3 °C 52.3 °F /  11.3 °C 30.02in /  1016.5hPa WSW 6mph /  9.7km/h 8mph /  12.9km/h 77% 0.00in /  0mm 0 W/m2
03:40 59.2 °F /  15.1 °C 52 °F /  11.1 °C 30.03in /  1016.8hPa WSW 2mph /  3.2km/h 8mph /  12.9km/h 77% 0.00in /  0mm 0 W/m2
03:50 58.7 °F /  14.8 °C 51.5 °F /  10.8 °C 30.03in /  1016.8hPa WSW 3mph /  4.8km/h 8mph /  12.9km/h 77% 0.00in /  0mm 0 W/m2
04:00 58.3 °F /  14.6 °C 51.1 °F /  10.6 °C 30.03in /  1016.8hPa West 3mph /  4.8km/h 8mph /  12.9km/h 77% 0.00in /  0mm 0 W/m2
04:10 57.9 °F /  14.4 °C 50.8 °F /  10.4 °C 30.04in /  1017.2hPa WSW 3mph /  4.8km/h 8mph /  12.9km/h 77% 0.00in /  0mm 0 W/m2
04:20 57.4 °F /  14.1 °C 50.6 °F /  10.3 °C 30.04in /  1017.2hPa WSW 3mph /  4.8km/h 7mph /  11.3km/h 78% 0.00in /  0mm 0 W/m2
04:30 57 °F /  13.9 °C 50.2 °F /  10.1 °C 30.04in /  1017.2hPa WSW 5mph /  8km/h 8mph /  12.9km/h 78% 0.00in /  0mm 0 W/m2
04:40 56.7 °F /  13.7 °C 50.2 °F /  10.1 °C 30.04in /  1017.2hPa SW 6mph /  9.7km/h 9mph /  14.5km/h 79% 0.00in /  0mm 0 W/m2
04:50 56.1 °F /  13.4 °C 49.7 °F /  9.8 °C 30.05in /  1017.5hPa SW 8mph /  12.9km/h 10mph /  16.1km/h 79% 0.00in /  0mm 0 W/m2
05:00 55.8 °F /  13.2 °C 49.3 °F /  9.6 °C 30.05in /  1017.5hPa WSW 6mph /  9.7km/h 10mph /  16.1km/h 79% 0.00in /  0mm 0 W/m2
05:10 55.2 °F /  12.9 °C 49.2 °F /  9.6 °C 30.06in /  1017.8hPa WSW 3mph /  4.8km/h 10mph /  16.1km/h 80% 0.00in /  0mm 0 W/m2
05:20 55 °F /  12.8 °C 49 °F /  9.4 °C 30.06in /  1017.8hPa SW 3mph /  4.8km/h 8mph /  12.9km/h 80% 0.00in /  0mm 2 W/m2
05:30 54.9 °F /  12.7 °C 48.8 °F /  9.3 °C 30.07in /  1018.2hPa WSW 2mph /  3.2km/h 6mph /  9.7km/h 80% 0.00in /  0mm 5 W/m2
05:40 54.9 °F /  12.7 °C 48.8 °F /  9.3 °C 30.07in /  1018.2hPa SW 2mph /  3.2km/h 6mph /  9.7km/h 80% 0.00in /  0mm 11 W/m2
05:50 54.9 °F /  12.7 °C 48.8 °F /  9.3 °C 30.08in /  1018.5hPa SW 1mph /  1.6km/h 4mph /  6.4km/h 80% 0.00in /  0mm 24 W/m2
06:00 54.7 °F /  12.6 °C 48.7 °F /  9.3 °C 30.09in /  1018.8hPa Calm   3mph /  4.8km/h 80% 0.00in /  0mm 37 W/m2
06:10 54.7 °F /  12.6 °C 48.6 °F /  9.2 °C 30.09in /  1018.8hPa Calm   2mph /  3.2km/h 80% 0.00in /  0mm 40 W/m2
06:20 54.7 °F /  12.6 °C 48.6 °F /  9.2 °C 30.10in /  1019.2hPa WSW 2mph /  3.2km/h 3mph /  4.8km/h 80% 0.00in /  0mm 61 W/m2
06:30 54.7 °F /  12.6 °C 48.6 °F /  9.2 °C 30.10in /  1019.2hPa SW 3mph /  4.8km/h 6mph /  9.7km/h 80% 0.00in /  0mm 95 W/m2
06:40 54.7 °F /  12.6 °C 48.6 °F /  9.2 °C 30.10in /  1019.2hPa SW 3mph /  4.8km/h 6mph /  9.7km/h 80% 0.00in /  0mm 68 W/m2
06:50 54.9 °F /  12.7 °C 48.5 °F /  9.2 °C 30.11in /  1019.5hPa WSW 5mph /  8km/h 9mph /  14.5km/h 79% 0.00in /  0mm 132 W/m2
07:10 55.4 °F /  13 °C 48.7 °F /  9.3 °C 30.12in /  1019.9hPa SW 3mph /  4.8km/h 9mph /  14.5km/h 78% 0.00in /  0mm 77 W/m2
07:20 55.6 °F /  13.1 °C 48.5 °F /  9.2 °C 30.12in /  1019.9hPa SW 6mph /  9.7km/h 9mph /  14.5km/h 77% 0.00in /  0mm 71 W/m2
07:30 55.8 °F /  13.2 °C 48 °F /  8.9 °C 30.12in /  1019.9hPa SW 8mph /  12.9km/h 10mph /  16.1km/h 75% 0.00in /  0mm 80 W/m2
07:40 55.9 °F /  13.3 °C 47.8 °F /  8.8 °C 30.12in /  1019.9hPa SW 6mph /  9.7km/h 11mph /  17.7km/h 74% 0.00in /  0mm 167 W/m2
07:50 56.3 °F /  13.5 °C 48.5 °F /  9.2 °C 30.13in /  1020.2hPa SSW 5mph /  8km/h 8mph /  12.9km/h 75% 0.00in /  0mm 127 W/m2
08:00 56.5 °F /  13.6 °C 48.6 °F /  9.2 °C 30.13in /  1020.2hPa SW 3mph /  4.8km/h 7mph /  11.3km/h 75% 0.00in /  0mm 80 W/m2
08:10 56.5 °F /  13.6 °C 48.6 °F /  9.2 °C 30.13in /  1020.2hPa SW 3mph /  4.8km/h 6mph /  9.7km/h 75% 0.00in /  0mm 83 W/m2
08:20 56.5 °F /  13.6 °C 48.6 °F /  9.2 °C 30.13in /  1020.2hPa SW 2mph /  3.2km/h 6mph /  9.7km/h 75% 0.00in /  0mm 119 W/m2
08:30 56.7 °F /  13.7 °C 48.8 °F /  9.3 °C 30.13in /  1020.2hPa SW 2mph /  3.2km/h 5mph /  8km/h 75% 0.00in /  0mm 163 W/m2
08:40 57 °F /  13.9 °C 49.2 °F /  9.6 °C 30.13in /  1020.2hPa SW 5mph /  8km/h 7mph /  11.3km/h 75% 0.00in /  0mm 154 W/m2
08:50 57.3 °F /  14.1 °C 49.1 °F /  9.5 °C 30.14in /  1020.5hPa SW 5mph /  8km/h 7mph /  11.3km/h 74% 0.00in /  0mm 133 W/m2
09:00 57.6 °F /  14.2 °C 49.3 °F /  9.6 °C 30.14in /  1020.5hPa SW 3mph /  4.8km/h 6mph /  9.7km/h 74% 0.00in /  0mm 146 W/m2
09:10 57.6 °F /  14.2 °C 49 °F /  9.4 °C 30.13in /  1020.2hPa SW 3mph /  4.8km/h 7mph /  11.3km/h 73% 0.00in /  0mm 139 W/m2
09:20 57.9 °F /  14.4 °C 48.9 °F /  9.4 °C 30.13in /  1020.2hPa SW 3mph /  4.8km/h 8mph /  12.9km/h 72% 0.00in /  0mm 278 W/m2
09:30 58.5 °F /  14.7 °C 48.3 °F /  9.1 °C 30.13in /  1020.2hPa WSW 5mph /  8km/h 8mph /  12.9km/h 69% 0.00in /  0mm 231 W/m2
09:40 58.6 °F /  14.8 °C 48.5 °F /  9.2 °C 30.13in /  1020.2hPa WSW 2mph /  3.2km/h 6mph /  9.7km/h 69% 0.00in /  0mm 279 W/m2
09:50 59.2 °F /  15.1 °C 49.4 °F /  9.7 °C 30.14in /  1020.5hPa WSW 2mph /  3.2km/h 5mph /  8km/h 70% 0.00in /  0mm 451 W/m2
10:00 59.7 °F /  15.4 °C 49.9 °F /  9.9 °C 30.14in /  1020.5hPa West 1mph /  1.6km/h 7mph /  11.3km/h 70% 0.00in /  0mm 240 W/m2
10:10 60.3 °F /  15.7 °C 50 °F /  10 °C 30.14in /  1020.5hPa West 2mph /  3.2km/h 5mph /  8km/h 69% 0.00in /  0mm 335 W/m2
10:20 60.8 °F /  16 °C 50.6 °F /  10.3 °C 30.14in /  1020.5hPa West 5mph /  8km/h 14mph /  22.5km/h 69% 0.00in /  0mm 356 W/m2
10:30 61.3 °F /  16.3 °C 49.1 °F /  9.5 °C 30.14in /  1020.5hPa West 6mph /  9.7km/h 14mph /  22.5km/h 64% 0.00in /  0mm 325 W/m2
10:40 61.3 °F /  16.3 °C 49.1 °F /  9.5 °C 30.14in /  1020.5hPa SW 6mph /  9.7km/h 9mph /  14.5km/h 64% 0.00in /  0mm 351 W/m2
10:50 62 °F /  16.7 °C 49.7 °F /  9.8 °C 30.14in /  1020.5hPa WSW 6mph /  9.7km/h 10mph /  16.1km/h 64% 0.00in /  0mm 830 W/m2
11:00 63.1 °F /  17.3 °C 50.3 °F /  10.2 °C 30.14in /  1020.5hPa WSW 6mph /  9.7km/h 12mph /  19.3km/h 63% 0.00in /  0mm 859 W/m2
11:10 64.6 °F /  18.1 °C 51.3 °F /  10.7 °C 30.13in /  1020.2hPa West 8mph /  12.9km/h 13mph /  20.9km/h 62% 0.00in /  0mm 787 W/m2
11:20 64.4 °F /  18 °C 50.2 °F /  10.1 °C 30.13in /  1020.2hPa SW 7mph /  11.3km/h 13mph /  20.9km/h 60% 0.00in /  0mm 355 W/m2
11:30 64 °F /  17.8 °C 49.4 °F /  9.7 °C 30.13in /  1020.2hPa WSW 8mph /  12.9km/h 12mph /  19.3km/h 59% 0.00in /  0mm 271 W/m2
11:40 63.9 °F /  17.7 °C 49.2 °F /  9.6 °C 30.13in /  1020.2hPa WSW 7mph /  11.3km/h 12mph /  19.3km/h 59% 0.00in /  0mm 266 W/m2
11:50 64 °F /  17.8 °C 49.4 °F /  9.7 °C 30.13in /  1020.2hPa WSW 6mph /  9.7km/h 11mph /  17.7km/h 59% 0.00in /  0mm 357 W/m2
12:00 64.2 °F /  17.9 °C 49.6 °F /  9.8 °C 30.13in /  1020.2hPa WSW 6mph /  9.7km/h 12mph /  19.3km/h 59% 0.00in /  0mm 267 W/m2
12:10 64.4 °F /  18 °C 49.3 °F /  9.6 °C 30.13in /  1020.2hPa WSW 7mph /  11.3km/h 11mph /  17.7km/h 58% 0.00in /  0mm 226 W/m2
12:20 64.2 °F /  17.9 °C 49.1 °F /  9.5 °C 30.13in /  1020.2hPa WSW 5mph /  8km/h 8mph /  12.9km/h 58% 0.00in /  0mm 279 W/m2
12:30 64.4 °F /  18 °C 49.3 °F /  9.6 °C 30.13in /  1020.2hPa West 6mph /  9.7km/h 9mph /  14.5km/h 58% 0.00in /  0mm 238 W/m2
12:40 64.4 °F /  18 °C 49.3 °F /  9.6 °C 30.12in /  1019.9hPa West 7mph /  11.3km/h 10mph /  16.1km/h 58% 0.00in /  0mm 333 W/m2
12:50 64.8 °F /  18.2 °C 49.6 °F /  9.8 °C 30.12in /  1019.9hPa WSW 3mph /  4.8km/h 8mph /  12.9km/h 58% 0.00in /  0mm 337 W/m2
13:00 65.3 °F /  18.5 °C 49.7 °F /  9.8 °C 30.12in /  1019.9hPa West 6mph /  9.7km/h 10mph /  16.1km/h 57% 0.00in /  0mm 630 W/m2
13:10 66 °F /  18.9 °C 50.3 °F /  10.2 °C 30.12in /  1019.9hPa WSW 5mph /  8km/h 13mph /  20.9km/h 57% 0.00in /  0mm 902 W/m2
13:20 67.3 °F /  19.6 °C 50.1 °F /  10.1 °C 30.12in /  1019.9hPa WSW 8mph /  12.9km/h 13mph /  20.9km/h 54% 0.00in /  0mm 894 W/m2
13:30 67.8 °F /  19.9 °C 50.1 °F /  10.1 °C 30.12in /  1019.9hPa WSW 8mph /  12.9km/h 12mph /  19.3km/h 53% 0.00in /  0mm 667 W/m2
13:40 68.3 °F /  20.2 °C 50.5 °F /  10.3 °C 30.11in /  1019.5hPa WSW 9mph /  14.5km/h 15mph /  24.1km/h 53% 0.00in /  0mm 872 W/m2
13:50 69.1 °F /  20.6 °C 51.2 °F /  10.7 °C 30.10in /  1019.2hPa WSW 7mph /  11.3km/h 15mph /  24.1km/h 53% 0.00in /  0mm 862 W/m2
14:00 69.2 °F /  20.7 °C 51.4 °F /  10.8 °C 30.11in /  1019.5hPa West 6mph /  9.7km/h 17mph /  27.4km/h 53% 0.00in /  0mm 781 W/m2
14:10 69.6 °F /  20.9 °C 51.7 °F /  10.9 °C 30.11in /  1019.5hPa West 10mph /  16.1km/h 15mph /  24.1km/h 53% 0.00in /  0mm 751 W/m2
14:20 69.6 °F /  20.9 °C 51.2 °F /  10.7 °C 30.11in /  1019.5hPa West 12mph /  19.3km/h 19mph /  30.6km/h 52% 0.00in /  0mm 757 W/m2
14:40 68.9 °F /  20.5 °C 51.1 °F /  10.6 °C 30.11in /  1019.5hPa West 7mph /  11.3km/h 17mph /  27.4km/h 53% 0.00in /  0mm 524 W/m2
14:50 68.6 °F /  20.3 °C 50.7 °F /  10.4 °C 30.11in /  1019.5hPa West 7mph /  11.3km/h 16mph /  25.7km/h 53% 0.00in /  0mm 399 W/m2
15:00 68.4 °F /  20.2 °C 50.6 °F /  10.3 °C 30.11in /  1019.5hPa WNW 6mph /  9.7km/h 13mph /  20.9km/h 53% 0.00in /  0mm 411 W/m2
15:10 68.2 °F /  20.1 °C 50.4 °F /  10.2 °C 30.11in /  1019.5hPa West 8mph /  12.9km/h 13mph /  20.9km/h 53% 0.00in /  0mm 413 W/m2
15:20 68 °F /  20 °C 50.7 °F /  10.4 °C 30.11in /  1019.5hPa WSW 6mph /  9.7km/h 12mph /  19.3km/h 54% 0.00in /  0mm 426 W/m2
15:30 68 °F /  20 °C 49.7 °F /  9.8 °C 30.11in /  1019.5hPa WSW 5mph /  8km/h 8mph /  12.9km/h 52% 0.00in /  0mm 460 W/m2
15:40 68.3 °F /  20.2 °C 50.5 °F /  10.3 °C 30.11in /  1019.5hPa WNW 5mph /  8km/h 8mph /  12.9km/h 53% 0.00in /  0mm 440 W/m2
15:50 68.4 °F /  20.2 °C 50.1 °F /  10.1 °C 30.10in /  1019.2hPa NNW 2mph /  3.2km/h 8mph /  12.9km/h 52% 0.00in /  0mm 315 W/m2
16:00 68.2 °F /  20.1 °C 50.4 °F /  10.2 °C 30.11in /  1019.5hPa North 3mph /  4.8km/h 8mph /  12.9km/h 53% 0.00in /  0mm 280 W/m2
16:10 67.7 °F /  19.8 °C 50.4 °F /  10.2 °C 30.11in /  1019.5hPa North 7mph /  11.3km/h 12mph /  19.3km/h 54% 0.00in /  0mm 254 W/m2
16:20 67.3 °F /  19.6 °C 50.1 °F /  10.1 °C 30.11in /  1019.5hPa North 5mph /  8km/h 8mph /  12.9km/h 54% 0.00in /  0mm 244 W/m2
16:30 66.9 °F /  19.4 °C 50.2 °F /  10.1 °C 30.11in /  1019.5hPa North 5mph /  8km/h 8mph /  12.9km/h 55% 0.00in /  0mm 225 W/m2
16:40 66.6 °F /  19.2 °C 49.9 °F /  9.9 °C 30.11in /  1019.5hPa North 2mph /  3.2km/h 9mph /  14.5km/h 55% 0.00in /  0mm 197 W/m2
16:50 66.2 °F /  19 °C 49.6 °F /  9.8 °C 30.11in /  1019.5hPa NNE 3mph /  4.8km/h 9mph /  14.5km/h 55% 0.00in /  0mm 197 W/m2
17:00 66 °F /  18.9 °C 49.4 °F /  9.7 °C 30.12in /  1019.9hPa North 2mph /  3.2km/h 12mph /  19.3km/h 55% 0.00in /  0mm 159 W/m2
17:10 65.7 °F /  18.7 °C 50 °F /  10 °C 30.11in /  1019.5hPa North 5mph /  8km/h 9mph /  14.5km/h 57% 0.00in /  0mm 146 W/m2
17:20 65.5 °F /  18.6 °C 49.8 °F /  9.9 °C 30.12in /  1019.9hPa North 3mph /  4.8km/h 9mph /  14.5km/h 57% 0.00in /  0mm 159 W/m2
17:30 65.5 °F /  18.6 °C 49.8 °F /  9.9 °C 30.12in /  1019.9hPa North 2mph /  3.2km/h 7mph /  11.3km/h 57% 0.00in /  0mm 172 W/m2
17:40 65.7 °F /  18.7 °C 49 °F /  9.4 °C 30.11in /  1019.5hPa NNE 5mph /  8km/h 7mph /  11.3km/h 55% 0.00in /  0mm 204 W/m2
17:50 65.5 °F /  18.6 °C 48.9 °F /  9.4 °C 30.11in /  1019.5hPa North 5mph /  8km/h 7mph /  11.3km/h 55% 0.00in /  0mm 149 W/m2
18:00 65.3 °F /  18.5 °C 48.7 °F /  9.3 °C 30.11in /  1019.5hPa North 2mph /  3.2km/h 8mph /  12.9km/h 55% 0.00in /  0mm 133 W/m2
18:10 65.1 °F /  18.4 °C 49.5 °F /  9.7 °C 30.11in /  1019.5hPa North 1mph /  1.6km/h 5mph /  8km/h 57% 0.00in /  0mm 115 W/m2
18:20 64.9 °F /  18.3 °C 49.3 °F /  9.6 °C 30.12in /  1019.9hPa NNW 1mph /  1.6km/h 7mph /  11.3km/h 57% 0.00in /  0mm 118 W/m2
18:30 64.8 °F /  18.2 °C 49.2 °F /  9.6 °C 30.12in /  1019.9hPa NNW 1mph /  1.6km/h 6mph /  9.7km/h 57% 0.00in /  0mm 95 W/m2
18:40 64.6 °F /  18.1 °C 49 °F /  9.4 °C 30.12in /  1019.9hPa NNW 2mph /  3.2km/h 5mph /  8km/h 57% 0.00in /  0mm 74 W/m2
18:50 64.2 °F /  17.9 °C 48.7 °F /  9.3 °C 30.12in /  1019.9hPa NNE 6mph /  9.7km/h 7mph /  11.3km/h 57% 0.00in /  0mm 44 W/m2
19:00 63.7 °F /  17.6 °C 48.2 °F /  9 °C 30.12in /  1019.9hPa NNW 3mph /  4.8km/h 7mph /  11.3km/h 57% 0.00in /  0mm 30 W/m2
19:10 63.1 °F /  17.3 °C 48.1 °F /  8.9 °C 30.13in /  1020.2hPa North 2mph /  3.2km/h 8mph /  12.9km/h 58% 0.00in /  0mm 20 W/m2
19:20 62.6 °F /  17 °C 47.6 °F /  8.7 °C 30.13in /  1020.2hPa NNW 6mph /  9.7km/h 9mph /  14.5km/h 58% 0.00in /  0mm 10 W/m2
19:30 61.9 °F /  16.6 °C 47.4 °F /  8.6 °C 30.13in /  1020.2hPa NNW 5mph /  8km/h 9mph /  14.5km/h 59% 0.00in /  0mm 3 W/m2
19:40 61.5 °F /  16.4 °C 47.1 °F /  8.4 °C 30.13in /  1020.2hPa NW 5mph /  8km/h 10mph /  16.1km/h 59% 0.00in /  0mm 0 W/m2
19:50 61.2 °F /  16.2 °C 47.2 °F /  8.4 °C 30.13in /  1020.2hPa NNW 3mph /  4.8km/h 10mph /  16.1km/h 60% 0.00in /  0mm 0 W/m2
20:00 60.6 °F /  15.9 °C 47.5 °F /  8.6 °C 30.13in /  1020.2hPa NNW 1mph /  1.6km/h 7mph /  11.3km/h 62% 0.00in /  0mm 0 W/m2
20:10 60.3 °F /  15.7 °C 47.2 °F /  8.4 °C 30.14in /  1020.5hPa North 2mph /  3.2km/h 7mph /  11.3km/h 62% 0.00in /  0mm 0 W/m2
20:20 59.9 °F /  15.5 °C 46.8 °F /  8.2 °C 30.14in /  1020.5hPa NNW 5mph /  8km/h 8mph /  12.9km/h 62% 0.00in /  0mm 0 W/m2
20:30 59.5 °F /  15.3 °C 46.5 °F /  8.1 °C 30.15in /  1020.9hPa North 2mph /  3.2km/h 6mph /  9.7km/h 62% 0.00in /  0mm 0 W/m2
20:40 59.4 °F /  15.2 °C 46.8 °F /  8.2 °C 30.15in /  1020.9hPa NNE 2mph /  3.2km/h 4mph /  6.4km/h 63% 0.00in /  0mm 0 W/m2
20:50 59 °F /  15 °C 46.8 °F /  8.2 °C 30.15in /  1020.9hPa NNE 1mph /  1.6km/h 5mph /  8km/h 64% 0.00in /  0mm 0 W/m2
21:00 58.8 °F /  14.9 °C 46.7 °F /  8.2 °C 30.16in /  1021.2hPa North 1mph /  1.6km/h 3mph /  4.8km/h 64% 0.00in /  0mm 0 W/m2
21:10 58.6 °F /  14.8 °C 46.5 °F /  8.1 °C 30.16in /  1021.2hPa NNE 2mph /  3.2km/h 4mph /  6.4km/h 64% 0.00in /  0mm 0 W/m2
21:20 58.5 °F /  14.7 °C 46.7 °F /  8.2 °C 30.16in /  1021.2hPa Calm   3mph /  4.8km/h 65% 0.00in /  0mm 0 W/m2
21:30 58.1 °F /  14.5 °C 47.2 °F /  8.4 °C 30.17in /  1021.6hPa Calm   2mph /  3.2km/h 67% 0.00in /  0mm 0 W/m2
21:40 57.9 °F /  14.4 °C 47 °F /  8.3 °C 30.17in /  1021.6hPa Calm     67% 0.00in /  0mm 0 W/m2
21:50 57.9 °F /  14.4 °C 47.4 °F /  8.6 °C 30.17in /  1021.6hPa Calm   1mph /  1.6km/h 68% 0.00in /  0mm 0 W/m2
22:00 57.6 °F /  14.2 °C 47.5 °F /  8.6 °C 30.17in /  1021.6hPa Calm   2mph /  3.2km/h 69% 0.00in /  0mm 0 W/m2
22:10 57.6 °F /  14.2 °C 45.9 °F /  7.7 °C 30.17in /  1021.6hPa NNW 2mph /  3.2km/h 3mph /  4.8km/h 65% 0.00in /  0mm 0 W/m2
22:20 57.4 °F /  14.1 °C 45.7 °F /  7.6 °C 30.20in /  1022.6hPa Calm   2mph /  3.2km/h 65% 0.00in /  0mm 0 W/m2
22:30 57.4 °F /  14.1 °C 47.7 °F /  8.7 °C 30.20in /  1022.6hPa NW 2mph /  3.2km/h 3mph /  4.8km/h 70% 0.00in /  0mm 0 W/m2
22:40 57.2 °F /  14 °C 45.5 °F /  7.5 °C 30.20in /  1022.6hPa North 2mph /  3.2km/h 4mph /  6.4km/h 65% 0.00in /  0mm 0 W/m2
22:50 57.2 °F /  14 °C 45.1 °F /  7.3 °C 30.20in /  1022.6hPa North 2mph /  3.2km/h 5mph /  8km/h 64% 0.00in /  0mm 0 W/m2
23:00 57 °F /  13.9 °C 45 °F /  7.2 °C 30.20in /  1022.6hPa North 3mph /  4.8km/h 5mph /  8km/h 64% 0.00in /  0mm 0 W/m2
23:10 57 °F /  13.9 °C 45 °F /  7.2 °C 30.20in /  1022.6hPa NNW 1mph /  1.6km/h 5mph /  8km/h 64% 0.00in /  0mm 0 W/m2
23:20 56.8 °F /  13.8 °C 44.8 °F /  7.1 °C 30.20in /  1022.6hPa Calm   3mph /  4.8km/h 64% 0.00in /  0mm 0 W/m2
23:30 56.7 °F /  13.7 °C 45 °F /  7.2 °C 30.21in /  1022.9hPa Calm   3mph /  4.8km/h 65% 0.00in /  0mm 0 W/m2
23:40 56.5 °F /  13.6 °C 46.4 °F /  8 °C 30.21in /  1022.9hPa Calm   2mph /  3.2km/h 69% 0.00in /  0mm 0 W/m2
23:50 56.3 °F /  13.5 °C 46.3 °F /  7.9 °C 30.22in /  1023.2hPa Calm   2mph /  3.2km/h 69% 0.00in /  0mm 0 W/m2
Knjazevac, Serbia
Compliments of Weather Underground - 2 mb